Time;durP1;ratioP1;P1;durP2;ratioP2;P2;SDS_P1;SDS_P2;PMS_P1;PMS_P2;Temp;Humidity;BMP_temperature;BMP_pressure;BME280_temperature;BME280_humidity;BME280_pressure;Samples;Min_cycle;Max_cycle;Signal;HPM_P1;HPM_P2
2023/11/15 00:00:05;;;;;;;4.77;3.83;;;;;;;10.36;100.00;98894.53;5040148;28;20198;-81
2023/11/15 00:02:32;;;;;;;3.53;2.70;;;;;;;10.17;100.00;98893.56;5038526;28;20680;-80
2023/11/15 00:04:59;;;;;;;2.37;2.00;;;;;;;9.93;100.00;98859.81;5039457;28;20209;-80
2023/11/15 00:07:25;;;;;;;2.30;1.97;;;;;;;9.95;100.00;98842.38;5034883;28;20262;-80
2023/11/15 00:09:53;;;;;;;3.90;2.60;;;;;;;10.09;100.00;98849.59;5052373;28;20205;-79
2023/11/15 00:12:19;;;;;;;3.63;2.53;;;;;;;10.25;100.00;98865.44;5054206;28;20209;-81
2023/11/15 00:14:46;;;;;;;2.13;2.00;;;;;;;9.82;100.00;98862.03;5054821;28;20715;-81
2023/11/15 00:17:14;;;;;;;3.30;1.90;;;;;;;9.83;100.00;98856.75;5054788;28;20225;-79
2023/11/15 00:19:43;;;;;;;2.87;1.57;;;;;;;9.94;100.00;98869.31;5055247;28;20229;-80
2023/11/15 00:22:10;;;;;;;2.77;1.90;;;;;;;10.08;100.00;98872.19;5049889;28;20202;-81
2023/11/15 00:24:38;;;;;;;4.00;2.17;;;;;;;9.97;100.00;98891.78;5047678;28;20240;-81
2023/11/15 00:27:05;;;;;;;4.10;1.43;;;;;;;10.04;100.00;98896.69;5045014;28;20242;-79
2023/11/15 00:29:33;;;;;;;2.87;1.00;;;;;;;10.08;100.00;98936.53;5051069;28;20201;-79
2023/11/15 00:31:59;;;;;;;2.50;1.40;;;;;;;10.08;100.00;98966.03;5038733;28;20252;-80
2023/11/15 00:34:27;;;;;;;1.07;0.90;;;;;;;10.07;100.00;98981.78;5055269;28;20202;-81
2023/11/15 00:36:53;;;;;;;2.00;1.10;;;;;;;10.18;100.00;99002.19;5054332;28;20232;-81
2023/11/15 00:39:21;;;;;;;1.30;1.23;;;;;;;10.04;100.00;99028.81;5055072;28;20688;-80
2023/11/15 00:41:48;;;;;;;1.73;1.23;;;;;;;10.14;100.00;99075.31;5055831;28;20232;-80
2023/11/15 00:44:16;;;;;;;3.63;1.07;;;;;;;10.03;100.00;99105.31;5047085;28;20225;-79
2023/11/15 00:46:44;;;;;;;2.93;1.07;;;;;;;9.87;100.00;99123.28;5048239;28;20226;-81
2023/11/15 00:49:11;;;;;;;3.53;1.10;;;;;;;10.05;99.98;99143.47;5054470;28;20668;-81
2023/11/15 00:51:39;;;;;;;4.57;1.13;;;;;;;9.87;99.38;99154.56;5050125;28;20229;-80
2023/11/15 00:54:06;;;;;;;3.63;1.30;;;;;;;9.94;99.69;99166.47;5046213;28;20213;-81
2023/11/15 00:56:33;;;;;;;3.37;1.13;;;;;;;9.92;98.59;99181.31;5050043;28;20275;-80
2023/11/15 00:58:59;;;;;;;3.13;1.13;;;;;;;9.96;98.79;99200.31;5055937;28;20209;-81
2023/11/15 01:01:27;;;;;;;1.83;1.30;;;;;;;9.92;98.24;99205.63;5051482;28;20253;-81
2023/11/15 01:03:55;;;;;;;4.23;1.13;;;;;;;9.78;98.09;99215.69;5052095;28;20750;-81
2023/11/15 01:06:22;;;;;;;2.03;1.00;;;;;;;9.81;98.10;99223.41;5046845;28;20233;-82
2023/11/15 01:08:51;;;;;;;1.20;0.83;;;;;;;9.81;97.47;99246.88;5047653;28;20198;-81
2023/11/15 01:11:17;;;;;;;2.13;1.30;;;;;;;10.00;97.03;99248.81;5055211;28;20290;-81
2023/11/15 01:13:44;;;;;;;5.20;1.00;;;;;;;9.85;97.93;99253.69;5048764;28;20210;-82
2023/11/15 01:16:10;;;;;;;2.60;1.00;;;;;;;9.98;98.10;99254.06;5038244;28;20305;-82
2023/11/15 01:18:37;;;;;;;1.80;0.90;;;;;;;9.83;97.85;99260.69;5050514;28;20256;-81
2023/11/15 01:21:05;;;;;;;4.83;1.30;;;;;;;10.02;98.09;99260.03;5036021;28;20730;-82
2023/11/15 01:23:32;;;;;;;2.33;0.97;;;;;;;9.95;97.23;99272.47;5041642;28;20202;-81
2023/11/15 01:26:00;;;;;;;2.97;0.93;;;;;;;9.97;97.72;99288.88;5038670;28;20859;-82
2023/11/15 01:28:26;;;;;;;3.83;1.20;;;;;;;9.96;98.07;99281.13;5051598;28;20602;-82
2023/11/15 01:30:53;;;;;;;2.23;1.20;;;;;;;10.07;97.25;99290.25;5044368;28;20237;-82
2023/11/15 01:33:19;;;;;;;2.53;0.90;;;;;;;10.09;96.72;99305.84;5047167;28;20217;-82
2023/11/15 01:35:45;;;;;;;5.63;1.17;;;;;;;9.92;97.06;99312.50;5054476;28;20584;-81
2023/11/15 01:38:12;;;;;;;1.90;1.10;;;;;;;9.92;96.09;99319.47;5055487;28;20224;-81
2023/11/15 01:40:38;;;;;;;3.73;1.37;;;;;;;9.90;95.87;99332.53;5050089;28;20202;-82
2023/11/15 01:43:06;;;;;;;5.03;1.20;;;;;;;9.99;95.79;99323.56;5052461;28;20205;-81
2023/11/15 01:45:33;;;;;;;3.30;1.27;;;;;;;10.01;96.01;99320.88;5044027;28;20226;-83
2023/11/15 01:47:59;;;;;;;6.73;1.60;;;;;;;9.82;95.72;99324.13;5052557;28;20205;-81
2023/11/15 01:50:26;;;;;;;2.33;1.30;;;;;;;9.85;95.68;99334.47;5055005;28;20225;-81
2023/11/15 01:52:53;;;;;;;6.30;1.40;;;;;;;10.19;94.10;99358.50;5051395;28;20209;-83
2023/11/15 01:55:21;;;;;;;2.07;1.10;;;;;;;9.97;94.27;99381.88;5055487;28;20197;-82
2023/11/15 01:57:48;;;;;;;3.53;1.33;;;;;;;10.09;94.06;99386.69;5048422;28;20213;-82
2023/11/15 02:00:16;;;;;;;2.73;1.20;;;;;;;10.02;94.48;99393.84;5056343;28;20209;-82
2023/11/15 02:02:44;;;;;;;4.13;2.17;;;;;;;10.01;94.30;99399.97;5049639;28;20231;-82
2023/11/15 02:05:11;;;;;;;4.00;1.57;;;;;;;9.94;94.40;99399.31;5046507;28;20209;-82
2023/11/15 02:07:38;;;;;;;3.67;1.30;;;;;;;10.08;94.42;99406.66;5041612;28;20202;-81
2023/11/15 02:10:07;;;;;;;3.97;1.23;;;;;;;9.94;94.53;99408.91;5035835;28;20202;-82
2023/11/15 02:12:34;;;;;;;3.03;1.20;;;;;;;10.01;95.35;99409.53;5040123;28;20865;-82
2023/11/15 02:15:00;;;;;;;2.40;1.30;;;;;;;10.09;95.19;99403.19;5047519;28;20210;-81
2023/11/15 02:17:28;;;;;;;4.67;1.37;;;;;;;10.16;94.50;99419.47;5039832;28;20221;-82
2023/11/15 02:19:55;;;;;;;4.07;1.27;;;;;;;10.07;94.90;99423.22;5047979;28;20242;-82
2023/11/15 02:22:21;;;;;;;4.27;1.57;;;;;;;9.94;94.99;99429.75;5048922;28;20205;-82
2023/11/15 02:24:49;;;;;;;4.17;1.27;;;;;;;10.09;95.04;99416.22;5049085;28;20212;-82
2023/11/15 02:27:16;;;;;;;7.33;1.60;;;;;;;10.22;94.59;99426.22;5038625;28;20222;-83
2023/11/15 02:29:42;;;;;;;3.87;1.40;;;;;;;10.36;93.65;99446.66;5056801;28;20688;-82
2023/11/15 02:32:09;;;;;;;3.30;1.40;;;;;;;10.17;93.91;99455.06;5047418;28;20236;-81
2023/11/15 02:34:36;;;;;;;3.30;1.67;;;;;;;10.35;94.22;99451.03;5047468;28;20251;-83
2023/11/15 02:37:02;;;;;;;3.43;1.50;;;;;;;10.17;94.78;99459.41;5053660;28;20240;-82
2023/11/15 02:39:28;;;;;;;5.43;1.53;;;;;;;10.05;95.30;99451.13;5054407;28;20786;-81
2023/11/15 02:41:56;;;;;;;4.37;1.40;;;;;;;10.11;95.95;99432.66;5055295;28;20198;-81
2023/11/15 02:44:23;;;;;;;7.80;1.87;;;;;;;10.29;95.75;99435.56;5044107;28;20205;-82
2023/11/15 02:46:49;;;;;;;3.83;1.50;;;;;;;10.13;95.63;99448.25;5035628;28;20267;-82
2023/11/15 02:49:15;;;;;;;1.97;1.30;;;;;;;9.94;96.67;99441.03;5054329;28;20209;-81
2023/11/15 02:51:42;;;;;;;3.63;1.33;;;;;;;9.97;96.35;99431.41;5042536;28;20226;-80
2023/11/15 02:54:08;;;;;;;4.33;1.00;;;;;;;10.05;96.20;99438.09;5053939;28;20206;-81
2023/11/15 02:56:35;;;;;;;2.17;1.00;;;;;;;9.88;97.73;99432.56;5050955;28;20226;-81
2023/11/15 02:59:03;;;;;;;2.90;1.50;;;;;;;9.88;98.25;99422.97;5049300;28;20213;-82
2023/11/15 03:01:29;;;;;;;2.10;1.40;;;;;;;9.79;99.35;99405.06;5039249;28;20270;-81
2023/11/15 03:03:56;;;;;;;2.47;1.40;;;;;;;9.74;100.00;99399.97;5046944;28;20219;-82
2023/11/15 03:06:23;;;;;;;1.47;0.90;;;;;;;9.98;99.20;99405.28;5051881;28;20238;-83
2023/11/15 03:08:50;;;;;;;1.57;1.00;;;;;;;9.79;100.00;99405.06;5041765;28;20716;-81
2023/11/15 03:11:16;;;;;;;2.10;1.17;;;;;;;9.69;100.00;99361.94;5055559;28;20291;-81
2023/11/15 03:13:43;;;;;;;5.83;1.10;;;;;;;9.81;100.00;99345.91;5049479;28;20212;-82
2023/11/15 03:16:11;;;;;;;2.10;1.23;;;;;;;9.53;100.00;99336.41;5052537;28;20225;-81
2023/11/15 03:18:38;;;;;;;2.20;1.10;;;;;;;9.43;100.00;99319.34;5046908;28;20205;-82
2023/11/15 03:21:06;;;;;;;2.13;1.20;;;;;;;9.45;100.00;99311.47;5046284;28;20289;-81
2023/11/15 03:23:32;;;;;;;2.30;1.00;;;;;;;9.56;100.00;99305.94;5038788;28;20206;-83
2023/11/15 03:25:59;;;;;;;2.73;1.17;;;;;;;9.39;100.00;99319.50;5053841;28;20229;-82
2023/11/15 03:28:25;;;;;;;2.97;1.10;;;;;;;9.66;100.00;99321.19;5050451;28;20205;-81
2023/11/15 03:30:51;;;;;;;1.57;0.70;;;;;;;9.41;100.00;99323.75;5057329;28;20216;-81
2023/11/15 03:33:19;;;;;;;1.67;0.87;;;;;;;9.66;100.00;99341.19;5057886;28;20205;-81
2023/11/15 03:35:46;;;;;;;0.83;0.80;;;;;;;9.83;100.00;99353.66;5057739;28;20229;-81
2023/11/15 03:38:13;;;;;;;1.40;1.17;;;;;;;9.69;100.00;99361.94;5062336;28;20225;-81
2023/11/15 03:40:39;;;;;;;1.70;0.80;;;;;;;9.67;100.00;99355.91;5054845;28;20229;-82
2023/11/15 03:43:06;;;;;;;2.00;0.97;;;;;;;9.29;100.00;99344.97;5038194;28;20202;-81
2023/11/15 03:45:32;;;;;;;2.30;0.90;;;;;;;9.50;100.00;99326.06;5049989;28;20233;-80
2023/11/15 03:47:58;;;;;;;1.83;0.70;;;;;;;9.34;100.00;99310.06;5058066;28;20228;-80
2023/11/15 03:50:26;;;;;;;1.17;0.70;;;;;;;9.33;100.00;99291.88;5056602;28;20231;-80
2023/11/15 03:52:54;;;;;;;0.70;0.70;;;;;;;9.49;100.00;99287.03;5043870;28;20225;-81
2023/11/15 03:55:20;;;;;;;2.63;0.90;;;;;;;9.79;100.00;99303.41;5050041;28;20263;-82
2023/11/15 03:57:47;;;;;;;2.47;0.90;;;;;;;9.80;100.00;99318.13;5052930;28;20206;-81
2023/11/15 04:00:16;;;;;;;1.20;0.67;;;;;;;9.82;100.00;99349.34;5055608;28;20213;-81
2023/11/15 04:02:43;;;;;;;1.53;0.90;;;;;;;9.79;100.00;99358.13;5053142;28;20222;-81
2023/11/15 04:05:10;;;;;;;2.27;0.80;;;;;;;9.65;100.00;99381.16;5055463;28;20209;-82
2023/11/15 04:07:38;;;;;;;0.53;0.53;;;;;;;9.60;100.00;99417.81;5049753;28;20734;-82
2023/11/15 04:10:06;;;;;;;0.60;0.53;;;;;;;9.73;100.00;99453.00;5059080;28;20205;-81
2023/11/15 04:12:33;;;;;;;0.70;0.43;;;;;;;9.69;100.00;99493.09;5041079;28;20221;-81
2023/11/15 04:15:00;;;;;;;0.60;0.50;;;;;;;9.74;100.00;99488.56;5058140;28;20584;-80
2023/11/15 04:17:27;;;;;;;1.23;0.70;;;;;;;9.39;100.00;99474.00;5049445;28;20226;-82
2023/11/15 04:19:53;;;;;;;1.10;0.60;;;;;;;9.23;100.00;99442.34;5049857;28;20210;-81
2023/11/15 04:22:19;;;;;;;2.00;0.60;;;;;;;9.05;100.00;99419.47;5037705;28;20588;-81
2023/11/15 04:24:47;;;;;;;0.97;0.57;;;;;;;8.82;100.00;99397.56;5049829;28;20595;-82
2023/11/15 04:27:14;;;;;;;2.47;0.90;;;;;;;8.64;100.00;99380.75;5048167;28;20225;-80
2023/11/15 04:29:40;;;;;;;0.70;0.50;;;;;;;8.68;100.00;99366.75;5060940;28;20209;-79
2023/11/15 04:32:07;;;;;;;1.73;0.60;;;;;;;8.63;100.00;99371.22;5069518;28;20236;-80
2023/11/15 04:34:34;;;;;;;0.83;0.50;;;;;;;8.58;100.00;99367.88;5067824;28;20206;-79
2023/11/15 04:37:01;;;;;;;2.37;0.60;;;;;;;8.79;100.00;99365.59;5071245;28;20233;-80
2023/11/15 04:39:28;;;;;;;3.70;0.77;;;;;;;8.56;100.00;99372.28;5054132;28;20214;-81
2023/11/15 04:41:55;;;;;;;1.47;0.90;;;;;;;8.54;100.00;99372.34;5042573;28;20201;-79
2023/11/15 04:44:23;;;;;;;2.30;1.00;;;;;;;8.50;100.00;99388.03;5055670;28;20236;-80
2023/11/15 04:46:49;;;;;;;1.43;0.87;;;;;;;8.33;100.00;99370.28;5055696;28;20260;-80
2023/11/15 04:49:16;;;;;;;1.40;0.83;;;;;;;8.39;100.00;99370.13;5055293;28;20288;-79
2023/11/15 04:51:42;;;;;;;1.53;1.10;;;;;;;8.43;100.00;99374.38;5046710;28;20726;-80
2023/11/15 04:54:10;;;;;;;1.13;0.80;;;;;;;8.22;100.00;99369.72;5055211;28;20205;-80
2023/11/15 04:56:36;;;;;;;1.50;0.83;;;;;;;8.15;100.00;99371.63;5035423;28;20230;-81
2023/11/15 04:59:04;;;;;;;4.30;1.03;;;;;;;8.35;100.00;99366.75;5042437;28;20583;-81
2023/11/15 05:01:31;;;;;;;1.70;0.80;;;;;;;8.34;100.00;99377.19;5047000;28;20205;-78
2023/11/15 05:03:57;;;;;;;1.43;1.10;;;;;;;8.38;100.00;99396.16;5055363;28;20208;-81
2023/11/15 05:06:24;;;;;;;2.93;0.70;;;;;;;8.42;100.00;99423.81;5054121;28;20225;-81
2023/11/15 05:08:50;;;;;;;1.57;0.87;;;;;;;8.65;100.00;99431.84;5055055;28;20209;-80
2023/11/15 05:11:16;;;;;;;1.17;0.60;;;;;;;8.58;100.00;99447.66;5053914;28;20205;-80
2023/11/15 05:13:43;;;;;;;0.83;0.63;;;;;;;8.47;100.00;99461.81;5047651;28;20208;-80
2023/11/15 05:16:11;;;;;;;1.30;0.80;;;;;;;8.46;100.00;99462.72;5047311;28;20268;-81
2023/11/15 05:18:38;;;;;;;1.83;0.77;;;;;;;8.48;100.00;99465.25;5038918;28;20210;-80
2023/11/15 05:21:05;;;;;;;1.83;0.67;;;;;;;8.49;100.00;99477.38;5040308;28;20217;-80
2023/11/15 05:23:31;;;;;;;1.53;0.60;;;;;;;8.42;100.00;99491.44;5045751;28;20209;-80
2023/11/15 05:25:58;;;;;;;2.17;0.63;;;;;;;8.45;100.00;99494.81;5046457;28;20236;-81
2023/11/15 05:28:24;;;;;;;1.27;0.60;;;;;;;8.51;100.00;99506.81;5046011;28;20683;-80
2023/11/15 05:30:51;;;;;;;2.10;0.80;;;;;;;8.57;100.00;99522.25;5054746;28;20655;-80
2023/11/15 05:33:19;;;;;;;1.10;1.00;;;;;;;8.70;100.00;99538.38;5047486;28;20229;-81
2023/11/15 05:35:45;;;;;;;1.63;0.60;;;;;;;8.65;100.00;99530.72;5050310;28;20232;-80
2023/11/15 05:38:12;;;;;;;1.27;0.90;;;;;;;8.68;100.00;99532.38;5051674;28;20214;-79
2023/11/15 05:40:38;;;;;;;1.10;0.90;;;;;;;8.70;100.00;99538.38;5048295;28;20213;-80
2023/11/15 05:43:04;;;;;;;8.23;1.90;;;;;;;8.53;100.00;99534.47;5047940;28;20202;-81
2023/11/15 05:45:31;;;;;;;0.90;0.80;;;;;;;8.59;100.00;99533.47;5045467;28;20596;-81
2023/11/15 05:47:58;;;;;;;3.63;0.87;;;;;;;8.60;100.00;99523.91;5055655;28;20201;-80
2023/11/15 05:50:25;;;;;;;1.93;0.80;;;;;;;8.50;100.00;99518.09;5053653;28;20232;-81
2023/11/15 05:52:56;;;;;;;1.93;0.90;;;;;;;8.68;100.00;99520.25;5042779;28;20228;-80
2023/11/15 05:55:22;;;;;;;2.53;0.73;;;;;;;8.68;100.00;99522.84;5044704;28;20206;-80
2023/11/15 05:57:49;;;;;;;1.13;0.60;;;;;;;8.77;100.00;99528.69;5055332;28;20608;-81
2023/11/15 06:00:20;;;;;;;0.83;0.47;;;;;;;8.73;100.00;99528.75;5054000;28;20691;-80
2023/11/15 06:02:47;;;;;;;0.60;0.60;;;;;;;8.60;100.00;99532.56;5046553;28;20259;-81
2023/11/15 06:05:14;;;;;;;2.30;0.87;;;;;;;8.76;100.00;99525.25;5045998;28;20255;-81
2023/11/15 06:07:41;;;;;;;1.47;0.93;;;;;;;8.70;100.00;99534.06;5036903;28;20691;-80
2023/11/15 06:10:09;;;;;;;0.97;0.40;;;;;;;8.51;100.00;99538.03;5054729;28;20209;-80
2023/11/15 06:12:36;;;;;;;0.50;0.50;;;;;;;8.55;100.00;99531.84;5054129;28;21579;-81
2023/11/15 06:15:02;;;;;;;3.40;0.50;;;;;;;8.57;100.00;99534.41;5048448;28;20252;-81
2023/11/15 06:17:30;;;;;;;1.50;0.50;;;;;;;8.74;100.00;99535.69;5053030;28;20565;-81
2023/11/15 06:19:57;;;;;;;1.47;1.00;;;;;;;8.61;100.00;99542.09;5046204;28;20201;-80
2023/11/15 06:22:24;;;;;;;1.57;0.50;;;;;;;8.61;100.00;99539.50;5051174;28;20679;-82
2023/11/15 06:24:52;;;;;;;0.50;0.50;;;;;;;8.71;100.00;99533.16;5045145;28;20210;-82
2023/11/15 06:27:19;;;;;;;0.50;0.50;;;;;;;8.91;100.00;99543.03;5037736;28;20232;-82
2023/11/15 06:29:47;;;;;;;3.57;1.00;;;;;;;8.63;100.00;99539.47;5053759;28;20209;-82
2023/11/15 06:32:13;;;;;;;1.27;0.50;;;;;;;8.58;100.00;99523.09;5045964;28;20289;-83
2023/11/15 06:34:40;;;;;;;0.97;0.57;;;;;;;8.67;100.00;99515.06;5053867;28;20205;-83
2023/11/15 06:37:06;;;;;;;0.80;0.80;;;;;;;8.46;100.00;99498.25;5053897;28;20236;-82
2023/11/15 06:39:33;;;;;;;1.90;0.70;;;;;;;8.55;100.00;99480.66;5053995;28;20205;-83
2023/11/15 06:42:00;;;;;;;1.40;0.70;;;;;;;8.50;100.00;99492.97;5054204;28;20201;-81
2023/11/15 06:44:27;;;;;;;0.70;0.70;;;;;;;8.52;100.00;99495.50;5055132;28;20198;-81
2023/11/15 06:46:53;;;;;;;2.20;0.70;;;;;;;8.67;100.00;99502.06;5057824;28;20254;-85
2023/11/15 06:49:20;;;;;;;0.50;0.50;;;;;;;8.53;100.00;99508.47;5045049;28;20697;-87
2023/11/15 06:51:51;;;;;;;2.20;0.70;;;;;;;8.52;100.00;99503.28;5050264;28;20216;-85
2023/11/15 06:54:17;;;;;;;1.83;0.73;;;;;;;8.50;100.00;99513.75;5045217;28;20198;-82
2023/11/15 06:56:46;;;;;;;1.13;0.60;;;;;;;8.61;100.00;99525.63;5028938;28;20225;-84
2023/11/15 06:59:14;;;;;;;1.03;0.77;;;;;;;8.86;100.00;99537.13;5056886;28;20206;-85
2023/11/15 07:01:40;;;;;;;1.07;0.67;;;;;;;8.86;100.00;99549.25;5051063;28;20197;-85
2023/11/15 07:04:07;;;;;;;0.77;0.77;;;;;;;8.73;100.00;99562.59;5050621;28;20209;-83
2023/11/15 07:06:34;;;;;;;1.53;0.83;;;;;;;8.97;100.00;99569.81;5069720;28;20237;-85
2023/11/15 07:09:01;;;;;;;3.10;0.97;;;;;;;8.76;100.00;99579.88;5069641;28;20186;-83
2023/11/15 07:11:28;;;;;;;2.13;0.70;;;;;;;8.78;100.00;99572.00;5054356;28;20204;-84
2023/11/15 07:13:55;;;;;;;1.50;1.00;;;;;;;8.65;100.00;99574.09;5056063;28;20229;-85
2023/11/15 07:16:23;;;;;;;2.50;1.37;;;;;;;9.00;100.00;99572.31;5048946;28;20724;-83
2023/11/15 07:18:49;;;;;;;1.37;1.00;;;;;;;8.86;100.00;99596.97;5056372;28;20201;-81
2023/11/15 07:21:16;;;;;;;2.20;0.90;;;;;;;8.82;100.00;99604.88;5053066;28;20213;-81
2023/11/15 07:23:42;;;;;;;1.13;0.77;;;;;;;8.91;100.00;99600.28;5047233;28;20207;-82
2023/11/15 07:26:10;;;;;;;1.60;1.03;;;;;;;8.89;100.00;99612.50;5055604;28;20229;-82
2023/11/15 07:28:41;;;;;;;2.63;0.93;;;;;;;9.02;100.00;99617.38;5047594;28;20271;-81
2023/11/15 07:31:08;;;;;;;2.20;1.00;;;;;;;9.00;100.00;99629.56;5055589;28;20206;-81
2023/11/15 07:33:36;;;;;;;0.90;0.80;;;;;;;8.99;100.00;99631.31;5048677;28;20225;-81
2023/11/15 07:36:03;;;;;;;1.33;0.80;;;;;;;9.04;100.00;99644.22;5057362;28;20610;-82
2023/11/15 07:38:30;;;;;;;2.10;1.00;;;;;;;9.27;100.00;99646.25;5048968;28;20220;-82
2023/11/15 07:40:57;;;;;;;2.40;0.70;;;;;;;9.14;100.00;99662.19;5043658;28;20688;-82
2023/11/15 07:43:23;;;;;;;1.60;0.80;;;;;;;9.24;100.00;99662.81;5037506;28;20233;-82
2023/11/15 07:45:53;;;;;;;2.10;0.80;;;;;;;9.36;100.00;99681.63;5047813;28;20226;-84
2023/11/15 07:48:20;;;;;;;1.33;0.60;;;;;;;9.42;100.00;99687.50;5060317;28;20209;-83
2023/11/15 07:50:48;;;;;;;1.00;0.70;;;;;;;9.61;100.00;99695.66;5052926;28;20229;-83
2023/11/15 07:53:15;;;;;;;1.50;0.93;;;;;;;9.82;100.00;99707.28;5051376;28;20231;-83
2023/11/15 07:55:42;;;;;;;2.43;0.60;;;;;;;10.01;100.00;99723.28;5046946;28;20234;-84
2023/11/15 07:58:10;;;;;;;1.30;0.50;;;;;;;10.15;100.00;99735.91;5048813;28;20229;-85
2023/11/15 08:00:38;;;;;;;0.60;0.50;;;;;;;10.29;100.00;99752.03;5047299;28;20268;-82
2023/11/15 08:03:04;;;;;;;2.97;1.00;;;;;;;10.38;100.00;99779.63;5052410;28;20198;-86
2023/11/15 08:05:31;;;;;;;1.50;1.00;;;;;;;10.46;100.00;99806.34;5048656;28;20240;-85
2023/11/15 08:07:59;;;;;;;2.53;1.10;;;;;;;10.52;100.00;99821.84;5050546;28;20216;-84
2023/11/15 08:10:31;;;;;;;3.13;0.97;;;;;;;10.60;100.00;99842.47;5050100;28;20623;-84
2023/11/15 08:12:57;;;;;;;1.67;1.20;;;;;;;10.63;100.00;99860.66;5057908;28;20283;-86
2023/11/15 08:15:23;;;;;;;2.40;2.07;;;;;;;10.24;100.00;99881.69;5050493;28;20203;-83
2023/11/15 08:17:50;;;;;;;1.70;1.60;;;;;;;10.50;100.00;99874.94;5048039;28;20205;-84
2023/11/15 08:20:17;;;;;;;4.53;2.50;;;;;;;10.28;100.00;99885.09;5055527;28;20197;-84
2023/11/15 08:22:44;;;;;;;2.80;2.20;;;;;;;10.40;100.00;99871.75;5039850;28;20248;-80
2023/11/15 08:25:13;;;;;;;3.20;2.80;;;;;;;10.45;100.00;99879.47;5037171;28;20205;-82
2023/11/15 08:27:41;;;;;;;3.73;2.93;;;;;;;10.02;100.00;99870.97;5044195;28;20209;-82
2023/11/15 08:30:12;;;;;;;6.13;3.47;;;;;;;10.05;100.00;99837.00;5056701;28;20206;-82
2023/11/15 08:32:45;;;;;;;9.87;3.77;;;;;;;10.02;100.00;99842.28;5043248;28;20252;-82
2023/11/15 08:35:11;;;;;;;5.73;3.53;;;;;;;10.36;100.00;99846.63;5037121;28;20217;-83
2023/11/15 08:37:39;;;;;;;5.47;3.47;;;;;;;10.08;100.00;99851.72;5053884;28;20596;-81
2023/11/15 08:40:10;;;;;;;4.20;3.33;;;;;;;10.30;100.00;99842.44;5057377;28;20202;-82
2023/11/15 08:42:38;;;;;;;4.40;3.80;;;;;;;10.53;100.00;99861.84;5055871;28;20263;-81
2023/11/15 08:45:06;;;;;;;6.33;3.60;;;;;;;10.68;100.00;99887.50;5054745;28;20197;-81
2023/11/15 08:47:33;;;;;;;5.93;3.50;;;;;;;10.64;100.00;99898.91;5049767;28;20202;-82
2023/11/15 08:49:59;;;;;;;6.07;3.10;;;;;;;10.85;100.00;99917.50;5057019;28;20208;-82
2023/11/15 08:52:26;;;;;;;5.43;3.90;;;;;;;10.52;99.29;99949.72;5051443;28;20211;-82
2023/11/15 08:54:56;;;;;;;3.93;3.40;;;;;;;10.59;99.40;99952.16;5049423;28;20210;-82
2023/11/15 08:57:22;;;;;;;3.63;2.77;;;;;;;10.38;100.00;99950.97;5048997;28;20248;-83
2023/11/15 08:59:50;;;;;;;4.80;3.20;;;;;;;10.58;100.00;99940.84;5060435;28;20387;-83
2023/11/15 09:02:22;;;;;;;3.43;2.83;;;;;;;10.31;100.00;99939.84;5052271;28;20647;-84
2023/11/15 09:04:50;;;;;;;5.67;3.40;;;;;;;10.31;100.00;99929.41;5050638;28;20202;-83
2023/11/15 09:07:19;;;;;;;3.90;2.93;;;;;;;10.56;100.00;99937.41;5059898;28;20248;-83
2023/11/15 09:09:46;;;;;;;4.83;2.70;;;;;;;10.60;100.00;99933.81;5049178;28;20256;-84
2023/11/15 09:12:15;;;;;;;3.20;2.90;;;;;;;10.43;100.00;99951.72;5057242;28;20244;-85
2023/11/15 09:14:42;;;;;;;4.07;2.87;;;;;;;10.46;100.00;99947.25;5058346;28;20316;-83
2023/11/15 09:17:16;;;;;;;3.37;3.03;;;;;;;10.22;100.00;99938.28;5058387;28;20228;-85
2023/11/15 09:19:46;;;;;;;4.27;3.13;;;;;;;10.21;100.00;99931.34;5055236;28;20687;-82
2023/11/15 09:22:13;;;;;;;3.23;2.97;;;;;;;10.37;100.00;99937.06;5050616;28;20448;-81
2023/11/15 09:24:39;;;;;;;4.40;2.57;;;;;;;10.40;100.00;99942.19;5046921;28;20251;-81
2023/11/15 09:27:06;;;;;;;2.23;2.10;;;;;;;10.44;99.61;99959.47;5054735;28;20234;-83
2023/11/15 09:29:33;;;;;;;2.33;2.10;;;;;;;10.68;99.92;99963.22;5056276;28;20240;-81
2023/11/15 09:32:00;;;;;;;2.80;2.20;;;;;;;10.73;99.32;99973.50;5056303;28;20209;-82
2023/11/15 09:34:28;;;;;;;2.37;2.17;;;;;;;10.77;98.17;99987.34;5056627;28;20237;-82
2023/11/15 09:36:54;;;;;;;3.10;2.13;;;;;;;10.73;97.89;100005.69;5055927;28;20229;-82
2023/11/15 09:39:21;;;;;;;2.30;2.10;;;;;;;10.47;99.14;99995.09;5056705;28;20208;-79
2023/11/15 09:41:53;;;;;;;3.63;1.70;;;;;;;10.51;99.98;99981.91;5054766;28;20206;-82
2023/11/15 09:44:23;;;;;;;3.53;2.37;;;;;;;10.41;99.54;99987.41;5055655;28;20197;-81
2023/11/15 09:46:52;;;;;;;3.17;2.03;;;;;;;10.43;99.61;99981.25;5056221;28;20217;-81
2023/11/15 09:49:20;;;;;;;2.27;1.83;;;;;;;10.51;99.89;99976.69;5056010;28;20208;-81
2023/11/15 09:51:48;;;;;;;2.97;2.10;;;;;;;10.53;99.79;99971.44;5049266;28;20205;-82
2023/11/15 09:54:16;;;;;;;2.30;1.63;;;;;;;10.43;100.00;99983.03;5055568;28;20221;-83
2023/11/15 09:56:44;;;;;;;2.90;1.83;;;;;;;10.39;100.00;99979.63;5056053;28;20264;-81
2023/11/15 09:59:10;;;;;;;1.93;1.70;;;;;;;10.53;99.48;99984.47;5057372;28;20281;-82
2023/11/15 10:01:43;;;;;;;1.80;1.70;;;;;;;10.58;99.78;99984.34;5056023;28;20205;-82
2023/11/15 10:04:20;;;;;;;4.13;1.77;;;;;;;10.82;98.92;99988.94;5057405;28;20202;-82
2023/11/15 10:06:51;;;;;;;2.33;1.70;;;;;;;10.87;98.11;100007.06;5056545;28;20229;-83
2023/11/15 10:09:17;;;;;;;2.77;1.80;;;;;;;10.88;97.27;100030.53;5058146;28;20236;-82
2023/11/15 10:11:48;;;;;;;2.40;1.50;;;;;;;11.05;96.88;100032.69;5076958;28;20195;-82
2023/11/15 10:14:15;;;;;;;3.60;2.00;;;;;;;11.10;95.61;100056.94;5076731;28;20197;-79
2023/11/15 10:16:48;;;;;;;2.33;2.00;;;;;;;11.03;95.57;100071.03;5076585;28;20252;-81
2023/11/15 10:19:26;;;;;;;4.00;2.13;;;;;;;11.06;95.83;100070.09;5065786;28;20305;-81
2023/11/15 10:21:57;;;;;;;4.37;2.33;;;;;;;10.75;96.84;100067.47;5044305;28;20300;-81
2023/11/15 10:24:25;;;;;;;4.57;2.60;;;;;;;10.62;98.90;100049.47;5055146;28;20205;-81
2023/11/15 10:26:51;;;;;;;4.17;3.07;;;;;;;10.60;100.00;100006.06;5053908;28;20308;-82
2023/11/15 10:29:21;;;;;;;2.63;2.20;;;;;;;10.61;100.00;99992.13;5053532;28;20201;-80
2023/11/15 10:31:49;;;;;;;3.30;2.20;;;;;;;10.82;100.00;99985.44;5054239;28;20209;-80
2023/11/15 10:34:16;;;;;;;2.40;1.93;;;;;;;11.01;99.81;99994.50;5057907;28;20249;-80
2023/11/15 10:36:42;;;;;;;3.87;2.20;;;;;;;10.93;99.22;100004.28;5058018;28;20229;-81
2023/11/15 10:39:11;;;;;;;4.73;2.37;;;;;;;11.12;99.24;100000.28;5057469;28;20201;-80
2023/11/15 10:41:39;;;;;;;3.60;2.93;;;;;;;11.10;99.48;99994.25;5056290;28;20231;-78
2023/11/15 10:44:08;;;;;;;4.80;3.57;;;;;;;11.14;99.29;100002.84;5057825;28;20201;-81
2023/11/15 10:46:39;;;;;;;4.87;3.27;;;;;;;10.83;100.00;99997.63;5058474;28;20695;-81
2023/11/15 10:49:11;;;;;;;4.43;3.73;;;;;;;10.71;100.00;99944.84;5058872;28;20698;-80
2023/11/15 10:51:42;;;;;;;4.57;3.67;;;;;;;10.26;100.00;99906.00;5051641;28;20209;-80
2023/11/15 10:54:12;;;;;;;4.53;4.07;;;;;;;10.38;100.00;99851.81;5050373;28;20225;-83
2023/11/15 10:56:40;;;;;;;4.70;3.37;;;;;;;10.27;100.00;99857.31;5061745;28;20225;-82
2023/11/15 10:59:06;;;;;;;3.53;3.23;;;;;;;10.13;100.00;99832.44;5059192;28;20202;-83
2023/11/15 11:01:34;;;;;;;8.13;3.47;;;;;;;10.39;100.00;99822.22;5057266;28;20206;-83
2023/11/15 11:04:03;;;;;;;9.33;3.47;;;;;;;10.45;100.00;99824.66;5057073;28;20206;-84
2023/11/15 11:06:39;;;;;;;3.60;3.30;;;;;;;10.28;100.00;99831.16;5057314;28;20221;-86
2023/11/15 11:09:16;;;;;;;8.73;3.63;;;;;;;10.34;100.00;99824.94;5056120;28;20206;-84
2023/11/15 11:11:52;;;;;;;4.33;3.07;;;;;;;10.56;100.00;99835.63;5053972;28;20293;-84
2023/11/15 11:14:21;;;;;;;6.00;3.90;;;;;;;10.27;100.00;99844.28;5055724;28;20243;-85
2023/11/15 11:16:49;;;;;;;5.03;3.90;;;;;;;10.48;100.00;99842.81;5059481;28;20226;-85
2023/11/15 11:19:26;;;;;;;4.00;3.60;;;;;;;10.56;100.00;99856.50;5059896;28;20204;-84
2023/11/15 11:22:14;;;;;;;4.13;3.57;;;;;;;10.70;100.00;99859.59;5054767;28;20234;-84
2023/11/15 11:24:48;;;;;;;4.23;3.67;;;;;;;10.55;100.00;99865.25;5046633;28;20209;-85
2023/11/15 11:27:37;;;;;;;4.80;4.40;;;;;;;10.60;100.00;99858.13;5041748;28;20307;-85
2023/11/15 11:30:37;;;;;;;5.13;4.33;;;;;;;10.34;100.00;99851.88;5053891;28;20232;-84
2023/11/15 11:43:32;;;;;;;6.47;4.43;;;;;;;10.15;100.00;99788.06;4977413;28;20215;-82